createdAt,value
2018-03-26T00:01:43.882Z,68.29
2018-03-26T00:04:16.545Z,67.16
2018-03-26T00:06:44.990Z,66.02
2018-03-26T00:09:13.415Z,66.48
2018-03-26T00:11:42.696Z,66.15
2018-03-26T00:14:13.188Z,66.62
2018-03-26T00:16:43.499Z,66.57
2018-03-26T00:19:13.525Z,67.21
2018-03-26T00:21:41.954Z,67.21
2018-03-26T00:24:12.401Z,67.62
2018-03-26T00:26:40.826Z,68.23
2018-03-26T00:29:11.333Z,68.21
2018-03-26T00:31:39.800Z,68.63
2018-03-26T00:34:08.213Z,67.99
2018-03-26T00:36:36.730Z,68.22
2018-03-26T00:39:07.346Z,68.09
2018-03-26T00:41:35.794Z,68.29
2018-03-26T00:44:06.154Z,68.55
2018-03-26T00:46:34.631Z,68.64
2018-03-26T00:49:03.119Z,68.25
2018-03-26T00:51:31.578Z,67.90
2018-03-26T00:54:02.017Z,68.13
2018-03-26T00:56:32.099Z,68.22
2018-03-26T00:59:00.545Z,68.57
2018-03-26T01:01:29.218Z,68.64
2018-03-26T01:03:59.604Z,68.84
2018-03-26T01:06:28.031Z,68.89
2018-03-26T01:08:56.469Z,68.61
2018-03-26T01:11:24.988Z,68.71
2018-03-26T01:13:53.526Z,68.85
2018-03-26T01:16:24.137Z,67.28
2018-03-26T01:18:52.559Z,67.99
2018-03-26T01:21:23.149Z,67.38
2018-03-26T01:23:51.565Z,67.30
2018-03-26T01:26:21.753Z,68.13
2018-03-26T01:28:51.907Z,69.10
2018-03-26T01:31:20.344Z,69.47
2018-03-26T01:33:51.160Z,69.86
2018-03-26T01:36:19.665Z,70.09
2018-03-26T01:38:48.037Z,70.01
2018-03-26T01:41:16.497Z,70.07
2018-03-26T01:43:44.945Z,70.09
2018-03-26T01:46:13.372Z,69.99
2018-03-26T01:48:45.385Z,70.04
2018-03-26T01:51:13.825Z,69.79
2018-03-26T01:53:42.249Z,70.06
2018-03-26T01:56:12.185Z,69.46
2018-03-26T01:58:40.598Z,69.78
2018-03-26T02:01:10.694Z,69.87
2018-03-26T02:03:39.109Z,69.69
2018-03-26T02:06:07.568Z,69.71
2018-03-26T02:08:35.993Z,69.45
2018-03-26T02:11:04.456Z,69.47
2018-03-26T02:13:32.913Z,68.73
2018-03-26T02:16:02.262Z,67.76
2018-03-26T02:18:34.390Z,68.45
2018-03-26T02:21:02.819Z,68.05
2018-03-26T02:23:31.221Z,67.82
2018-03-26T02:25:59.649Z,68.43
2018-03-26T02:28:28.148Z,68.89
2018-03-26T02:30:56.572Z,68.45
2018-03-26T02:33:25.039Z,68.77
2018-03-26T02:35:53.498Z,69.45
2018-03-26T02:38:23.464Z,69.36
2018-03-26T02:40:51.913Z,69.82
2018-03-26T02:43:20.436Z,69.97
2018-03-26T02:45:48.872Z,69.86
2018-03-26T02:48:17.637Z,69.65
2018-03-26T02:50:46.106Z,68.72
2018-03-26T02:53:14.537Z,68.44
2018-03-26T02:55:46.506Z,69.07
2018-03-26T02:58:15.001Z,69.27
2018-03-26T03:00:45.353Z,69.63
2018-03-26T03:03:19.909Z,70.10
2018-03-26T03:05:48.354Z,70.21
2018-03-26T03:08:16.713Z,69.18
2018-03-26T03:10:45.164Z,69.28
2018-03-26T03:13:13.752Z,70.15
2018-03-26T03:15:42.251Z,70.50
2018-03-26T03:18:11.009Z,70.59
2018-03-26T03:20:42.825Z,70.54
2018-03-26T03:23:12.304Z,70.43
2018-03-26T03:25:40.717Z,70.46
2018-03-26T03:28:09.140Z,70.63
2018-03-26T03:30:39.102Z,70.29
2018-03-26T03:33:07.540Z,69.47
2018-03-26T03:35:35.961Z,68.53
2018-03-26T03:38:06.548Z,68.39
2018-03-26T03:40:34.956Z,68.87
2018-03-26T03:43:06.819Z,69.48
2018-03-26T03:45:37.208Z,70.37
2018-03-26T03:48:05.714Z,70.70
2018-03-26T03:50:34.137Z,71.55
2018-03-26T03:53:02.817Z,71.23
2018-03-26T03:55:33.019Z,70.97
2018-03-26T03:58:03.829Z,70.66
2018-03-26T04:00:32.290Z,70.38
2018-03-26T04:03:00.761Z,69.62
2018-03-26T04:05:29.265Z,69.68
2018-03-26T04:07:57.704Z,70.07
2018-03-26T04:10:26.185Z,70.71
2018-03-26T04:12:57.036Z,71.07
2018-03-26T04:15:26.256Z,70.59
2018-03-26T04:17:54.693Z,69.64
2018-03-26T04:20:23.142Z,69.95
2018-03-26T04:22:53.117Z,71.00
2018-03-26T04:25:21.537Z,70.14
2018-03-26T04:27:49.957Z,70.07
2018-03-26T04:30:18.404Z,70.28
2018-03-26T04:32:46.819Z,70.21
2018-03-26T04:35:15.245Z,71.07
2018-03-26T04:37:43.724Z,71.52
2018-03-26T04:40:12.264Z,71.74
2018-03-26T04:42:40.669Z,72.75
2018-03-26T04:45:09.075Z,72.44
2018-03-26T04:47:37.513Z,71.67
2018-03-26T04:50:06.021Z,71.54
2018-03-26T04:52:36.750Z,70.57
2018-03-26T04:55:07.282Z,70.45
2018-03-26T04:57:35.737Z,71.05
2018-03-26T05:00:04.216Z,70.98
2018-03-26T05:02:32.647Z,71.11
2018-03-26T05:05:03.447Z,72.12
2018-03-26T05:07:32.483Z,72.28
2018-03-26T05:10:03.035Z,72.73
2018-03-26T05:12:31.486Z,72.65
2018-03-26T05:14:59.915Z,71.38
2018-03-26T05:17:28.337Z,71.00
2018-03-26T05:19:56.773Z,71.52
2018-03-26T05:22:25.234Z,71.92
2018-03-26T05:24:53.658Z,71.79
2018-03-26T05:27:22.504Z,71.69
2018-03-26T05:29:50.901Z,72.32
2018-03-26T05:32:21.138Z,72.42
2018-03-26T05:34:51.693Z,71.31
2018-03-26T05:37:20.104Z,71.83
2018-03-26T05:39:48.570Z,72.38
2018-03-26T05:42:16.993Z,72.42
2018-03-26T05:44:49.609Z,72.32
2018-03-26T05:47:18.033Z,72.56
2018-03-26T05:49:46.427Z,72.79
2018-03-26T05:52:15.165Z,73.13
2018-03-26T05:54:43.572Z,72.49
2018-03-26T05:57:11.972Z,72.68
2018-03-26T05:59:40.442Z,73.08
2018-03-26T06:02:08.903Z,73.23
2018-03-26T06:04:37.510Z,72.52
2018-03-26T06:07:05.913Z,71.54
2018-03-26T06:09:34.338Z,70.14
2018-03-26T06:12:03.890Z,69.58
2018-03-26T06:14:32.456Z,68.73
2018-03-26T06:17:12.558Z,67.61
2018-03-26T06:19:42.573Z,66.50
2018-03-26T06:22:10.965Z,65.75
2018-03-26T06:24:40.942Z,65.26
2018-03-26T06:27:09.409Z,64.67
2018-03-26T06:29:37.880Z,63.76
2018-03-26T06:32:06.333Z,62.87
2018-03-26T06:34:34.777Z,62.44
2018-03-26T06:37:11.376Z,62.81
2018-03-26T06:39:42.298Z,62.79
2018-03-26T06:42:10.684Z,63.21
2018-03-26T06:44:39.084Z,63.79
2018-03-26T06:47:10.282Z,64.32
2018-03-26T06:49:38.771Z,64.89
2018-03-26T06:52:09.816Z,62.74
2018-03-26T06:54:38.215Z,61.95
2018-03-26T06:57:06.626Z,62.24
2018-03-26T06:59:36.148Z,60.95
2018-03-26T07:02:05.868Z,61.45
2018-03-26T07:04:36.844Z,61.63
2018-03-26T07:07:06.129Z,61.17
2018-03-26T07:09:36.208Z,60.09
2018-03-26T07:12:04.625Z,60.09
2018-03-26T07:14:34.099Z,59.90
2018-03-26T07:17:02.603Z,60.59
2018-03-26T07:19:31.055Z,60.89
2018-03-26T07:22:00.613Z,59.51
2018-03-26T07:24:31.457Z,58.16
2018-03-26T07:27:00.984Z,56.26
2018-03-26T07:29:29.362Z,54.59
2018-03-26T07:31:57.789Z,54.70
2018-03-26T07:34:27.409Z,53.92
2018-03-26T07:36:55.966Z,53.96
2018-03-26T07:39:25.230Z,53.70
2018-03-26T07:41:53.651Z,54.10
2018-03-26T07:44:22.113Z,54.29
2018-03-26T07:46:50.661Z,53.53
2018-03-26T07:49:19.141Z,54.20
2018-03-26T07:51:47.640Z,54.20
2018-03-26T07:54:16.117Z,54.72
2018-03-26T07:56:45.656Z,55.36
2018-03-26T07:59:14.159Z,55.44
2018-03-26T08:01:42.549Z,55.29
2018-03-26T08:04:10.977Z,54.45
2018-03-26T08:06:39.413Z,54.51
2018-03-26T08:09:07.836Z,54.30
2018-03-26T08:11:36.269Z,54.26
2018-03-26T08:14:04.781Z,54.44
2018-03-26T08:16:34.106Z,53.00
2018-03-26T08:19:04.022Z,53.41
2018-03-26T08:21:32.458Z,53.33
2018-03-26T08:24:02.088Z,52.17
2018-03-26T08:26:30.543Z,52.44
2018-03-26T08:28:59.005Z,52.72
2018-03-26T08:31:27.710Z,52.56
2018-03-26T08:33:56.125Z,51.69
2018-03-26T08:36:24.610Z,50.09
2018-03-26T08:38:53.451Z,47.59
2018-03-26T08:41:21.889Z,45.48
2018-03-26T08:43:50.301Z,40.98
2018-03-26T08:46:18.760Z,37.58
2018-03-26T08:48:47.188Z,37.05
2018-03-26T08:51:16.702Z,37.63
2018-03-26T08:53:46.136Z,36.65
2018-03-26T08:56:14.582Z,36.46
2018-03-26T08:58:43.041Z,35.94
2018-03-26T09:01:11.514Z,36.08
2018-03-26T09:03:40.844Z,36.05
2018-03-26T09:06:08.487Z,35.18
2018-03-26T09:08:38.083Z,36.99
2018-03-26T09:11:07.803Z,36.98
2018-03-26T09:13:36.386Z,35.36
2018-03-26T09:16:05.220Z,35.41
2018-03-26T09:18:33.700Z,33.21
2018-03-26T09:21:02.160Z,32.81
2018-03-26T09:23:30.563Z,32.91
2018-03-26T09:25:58.986Z,33.12
2018-03-26T09:28:27.417Z,32.01
2018-03-26T09:30:55.865Z,31.16
2018-03-26T09:33:24.277Z,30.67
2018-03-26T09:35:52.729Z,31.21
2018-03-26T09:38:21.202Z,31.17
2018-03-26T09:40:48.632Z,30.45
2018-03-26T09:43:19.331Z,30.33
2018-03-26T09:45:47.794Z,28.69
2018-03-26T09:48:16.302Z,29.25
2018-03-26T09:50:44.713Z,29.30
2018-03-26T09:53:13.268Z,28.97
2018-03-26T09:55:42.750Z,29.88
2018-03-26T09:58:13.482Z,29.72
2018-03-26T10:00:47.978Z,30.27
2018-03-26T10:03:16.393Z,30.08
2018-03-26T10:05:44.876Z,29.49
2018-03-26T10:08:13.347Z,30.59
2018-03-26T10:10:41.929Z,32.04
2018-03-26T10:13:10.396Z,31.37
2018-03-26T10:15:39.856Z,31.78
2018-03-26T10:18:09.463Z,33.45
2018-03-26T10:20:37.957Z,33.98
2018-03-26T10:23:07.405Z,34.41
2018-03-26T10:25:36.588Z,35.24
2018-03-26T10:28:05.096Z,35.01
2018-03-26T10:30:34.952Z,36.46
2018-03-26T10:33:03.342Z,37.08
2018-03-26T10:35:32.782Z,36.07
2018-03-26T10:38:03.073Z,38.21
2018-03-26T10:40:31.501Z,39.19
2018-03-26T10:42:59.915Z,38.76
2018-03-26T10:45:28.357Z,40.84
2018-03-26T10:47:56.835Z,40.93
2018-03-26T10:50:25.257Z,41.31
2018-03-26T10:52:54.896Z,41.01
2018-03-26T10:55:23.326Z,40.49
2018-03-26T10:57:51.771Z,39.95
2018-03-26T11:00:21.365Z,40.41
2018-03-26T11:02:49.828Z,40.69
2018-03-26T11:05:18.262Z,40.53
2018-03-26T11:07:46.835Z,40.04
2018-03-26T11:10:15.309Z,41.08
2018-03-26T11:12:43.753Z,42.08
2018-03-26T11:15:12.189Z,43.53
2018-03-26T11:17:40.942Z,43.27
2018-03-26T11:20:09.591Z,43.12
2018-03-26T11:22:38.010Z,43.32
2018-03-26T11:25:08.862Z,44.83
2018-03-26T11:27:37.289Z,45.82
2018-03-26T11:30:07.022Z,45.83
2018-03-26T11:32:35.470Z,46.11
2018-03-26T11:35:06.638Z,47.40
2018-03-26T11:37:35.062Z,47.60
2018-03-26T11:40:03.619Z,49.17
2018-03-26T11:42:33.210Z,49.09
2018-03-26T11:45:01.628Z,49.29
2018-03-26T11:47:33.753Z,48.91
2018-03-26T11:50:04.878Z,49.00
2018-03-26T11:52:33.318Z,49.69
2018-03-26T11:55:01.751Z,49.79
2018-03-26T11:57:30.226Z,48.68
2018-03-26T11:59:58.680Z,48.92
2018-03-26T12:02:27.258Z,49.13
2018-03-26T12:04:57.095Z,48.76
2018-03-26T12:07:25.704Z,49.03
2018-03-26T12:09:54.205Z,49.60
2018-03-26T12:12:22.820Z,49.13
2018-03-26T12:14:52.638Z,49.08
2018-03-26T12:17:21.097Z,48.61
2018-03-26T12:19:55.743Z,46.72
2018-03-26T12:22:25.228Z,46.21
2018-03-26T12:24:55.632Z,46.36
2018-03-26T12:27:24.080Z,46.93
2018-03-26T12:29:58.766Z,46.92
2018-03-26T12:32:28.509Z,47.70
2018-03-26T12:35:03.136Z,47.68
2018-03-26T12:37:31.587Z,48.00
2018-03-26T12:40:00.238Z,48.18
2018-03-26T12:42:28.672Z,48.74
2018-03-26T12:45:03.417Z,48.78
2018-03-26T12:47:31.805Z,49.11
2018-03-26T12:50:01.855Z,48.29
2018-03-26T12:52:37.813Z,48.59
2018-03-26T12:55:07.541Z,47.86
2018-03-26T12:57:42.245Z,48.17
2018-03-26T13:00:10.625Z,47.28
2018-03-26T13:02:39.129Z,48.82
2018-03-26T13:05:07.591Z,48.69
2018-03-26T13:07:37.357Z,49.46
2018-03-26T13:10:05.816Z,50.16
2018-03-26T13:12:34.236Z,51.80
2018-03-26T13:15:03.305Z,51.99
2018-03-26T13:17:31.726Z,52.12
2018-03-26T13:20:03.143Z,53.00
2018-03-26T13:22:31.572Z,52.31
2018-03-26T13:25:01.493Z,51.98
2018-03-26T13:27:30.026Z,52.66
2018-03-26T13:29:58.438Z,51.63
2018-03-26T13:32:29.517Z,51.19
2018-03-26T13:34:58.029Z,51.25
2018-03-26T13:37:26.483Z,50.25
2018-03-26T13:39:55.075Z,50.74
2018-03-26T13:42:26.287Z,50.43
2018-03-26T13:44:55.882Z,49.55
2018-03-26T13:47:24.306Z,50.25
2018-03-26T13:49:52.861Z,48.72
2018-03-26T13:52:21.302Z,47.99
2018-03-26T13:54:50.346Z,49.07
2018-03-26T13:57:18.830Z,48.85
2018-03-26T13:59:47.319Z,48.53
2018-03-26T14:02:15.793Z,49.11
2018-03-26T14:04:44.221Z,48.54
2018-03-26T14:07:12.684Z,49.45
2018-03-26T14:09:47.459Z,49.33
2018-03-26T14:12:21.837Z,49.29
2018-03-26T14:14:56.474Z,49.13
2018-03-26T14:17:31.394Z,49.86
2018-03-26T14:19:59.786Z,50.52
2018-03-26T14:22:29.786Z,51.63
2018-03-26T14:24:59.789Z,53.29
2018-03-26T14:27:28.254Z,54.96
2018-03-26T14:29:59.342Z,55.88
2018-03-26T14:32:30.071Z,55.93
2018-03-26T14:35:04.756Z,55.59
2018-03-26T14:37:33.218Z,56.23
2018-03-26T14:40:01.674Z,54.96
2018-03-26T14:42:31.672Z,57.88
2018-03-26T14:45:00.137Z,57.92
2018-03-26T14:47:28.578Z,57.92
2018-03-26T14:49:57.011Z,58.42
2018-03-26T14:52:27.422Z,58.72
2018-03-26T14:54:57.934Z,60.42
2018-03-26T14:57:26.358Z,62.65
2018-03-26T14:59:54.856Z,64.10
2018-03-26T15:02:23.350Z,63.98
2018-03-26T15:04:53.306Z,62.91
2018-03-26T15:07:21.766Z,64.21
2018-03-26T15:09:50.222Z,65.88
2018-03-26T15:12:20.194Z,66.17
2018-03-26T15:14:50.272Z,67.01
2018-03-26T15:17:18.660Z,68.06
2018-03-26T15:19:47.342Z,68.97
2018-03-26T15:22:15.805Z,69.06
2018-03-26T15:24:45.707Z,69.53
2018-03-26T15:27:14.183Z,69.19
2018-03-26T15:29:45.754Z,69.05
2018-03-26T15:32:14.261Z,69.43
2018-03-26T15:34:42.717Z,69.05
2018-03-26T15:37:11.194Z,68.55
2018-03-26T15:39:39.740Z,67.84
2018-03-26T15:42:08.238Z,67.25
2018-03-26T15:44:36.798Z,68.09
2018-03-26T15:47:05.245Z,69.33
2018-03-26T15:49:33.672Z,70.48
2018-03-26T15:52:03.850Z,71.58
2018-03-26T15:54:33.814Z,72.38
2018-03-26T15:57:03.738Z,72.37
2018-03-26T15:59:32.209Z,71.97
2018-03-26T16:02:00.540Z,72.87
2018-03-26T16:04:31.470Z,72.85
2018-03-26T16:07:02.054Z,72.27
2018-03-26T16:09:32.130Z,72.55
2018-03-26T16:12:00.564Z,71.84
2018-03-26T16:14:29.033Z,72.06
2018-03-26T16:16:59.087Z,71.44
2018-03-26T16:19:27.517Z,71.64
2018-03-26T16:21:57.510Z,71.97
2018-03-26T16:24:27.598Z,73.45
2018-03-26T16:26:56.049Z,73.97
2018-03-26T16:29:25.662Z,74.03
2018-03-26T16:31:56.641Z,73.53
2018-03-26T16:34:25.100Z,73.41
2018-03-26T16:36:57.007Z,73.34
2018-03-26T16:39:25.426Z,73.71
2018-03-26T16:42:00.011Z,73.47
2018-03-26T16:44:28.421Z,73.28
2018-03-26T16:46:57.441Z,72.93
2018-03-26T16:49:25.876Z,72.86
2018-03-26T16:51:55.072Z,72.35
2018-03-26T16:54:23.526Z,71.99
2018-03-26T16:56:51.990Z,72.28
2018-03-26T16:59:24.029Z,72.44
2018-03-26T17:01:52.476Z,72.70
2018-03-26T17:04:22.333Z,72.77
2018-03-26T17:06:50.772Z,73.65
2018-03-26T17:09:21.206Z,72.96
2018-03-26T17:11:49.682Z,72.16
2018-03-26T17:14:18.169Z,71.60
2018-03-26T17:16:50.066Z,71.89
2018-03-26T17:19:18.549Z,71.94
2018-03-26T17:21:48.970Z,71.16
2018-03-26T17:24:17.473Z,71.65
2018-03-26T17:26:46.250Z,71.24
2018-03-26T17:29:14.690Z,71.63
2018-03-26T17:31:43.110Z,70.77
2018-03-26T17:34:11.832Z,70.45
2018-03-26T17:36:40.381Z,69.91
2018-03-26T17:39:08.813Z,71.01
2018-03-26T17:41:37.273Z,72.48
2018-03-26T17:44:07.695Z,73.00
2018-03-26T17:46:36.248Z,73.80
2018-03-26T17:49:04.718Z,74.24
2018-03-26T17:51:33.155Z,74.82
2018-03-26T17:54:01.662Z,74.70
2018-03-26T17:56:31.338Z,74.83
2018-03-26T17:58:59.773Z,75.28
2018-03-26T18:01:28.194Z,75.71
2018-03-26T18:03:56.633Z,76.13
2018-03-26T18:06:27.057Z,75.93
2018-03-26T18:08:56.448Z,74.94
2018-03-26T18:11:25.047Z,75.11
2018-03-26T18:13:53.500Z,75.89
2018-03-26T18:16:27.093Z,75.67
2018-03-26T18:18:55.564Z,75.67
2018-03-26T18:21:24.315Z,75.48
2018-03-26T18:23:54.372Z,75.04
2018-03-26T18:26:24.412Z,74.75
2018-03-26T18:28:53.515Z,75.29
2018-03-26T18:31:22.017Z,74.61
2018-03-26T18:33:52.449Z,74.34
2018-03-26T18:36:20.954Z,73.97
2018-03-26T18:38:49.428Z,73.20
2018-03-26T18:41:19.847Z,73.04
2018-03-26T18:43:48.321Z,74.25
2018-03-26T18:46:18.913Z,73.47
2018-03-26T18:48:47.418Z,72.26
2018-03-26T18:51:18.039Z,72.24
2018-03-26T18:53:46.748Z,73.55
2018-03-26T18:56:15.220Z,73.86
2018-03-26T18:58:45.566Z,73.94
2018-03-26T19:01:15.726Z,73.94
2018-03-26T19:03:45.790Z,74.79
2018-03-26T19:06:14.319Z,75.27
2018-03-26T19:08:42.837Z,75.18
2018-03-26T19:11:11.391Z,74.33
2018-03-26T19:13:39.922Z,73.59
2018-03-26T19:16:08.427Z,74.67
2018-03-26T19:18:36.915Z,74.79
2018-03-26T19:21:10.322Z,75.49
2018-03-26T19:23:38.789Z,76.03
2018-03-26T19:26:07.672Z,76.36
2018-03-26T19:28:37.665Z,76.20
2018-03-26T19:31:06.159Z,76.53
2018-03-26T19:33:34.629Z,76.89
2018-03-26T19:36:06.463Z,75.96
2018-03-26T19:38:34.914Z,77.04
2018-03-26T19:41:04.983Z,77.22
2018-03-26T19:43:33.469Z,77.47
2018-03-26T19:46:01.924Z,77.58
2018-03-26T19:48:30.585Z,77.60
2018-03-26T19:51:02.271Z,77.33
2018-03-26T19:53:30.770Z,77.27
2018-03-26T19:55:59.197Z,77.15
2018-03-26T19:58:29.152Z,76.71
2018-03-26T20:00:57.569Z,76.44
2018-03-26T20:03:26.057Z,75.38
2018-03-26T20:05:56.493Z,75.70
2018-03-26T20:08:24.959Z,74.91
2018-03-26T20:10:53.843Z,75.61
2018-03-26T20:13:22.261Z,75.64
2018-03-26T20:15:52.698Z,76.19
2018-03-26T20:18:21.412Z,76.98
2018-03-26T20:20:49.905Z,77.33
2018-03-26T20:23:18.381Z,77.35
2018-03-26T20:25:46.852Z,77.34
2018-03-26T20:28:15.319Z,77.20
2018-03-26T20:30:45.343Z,76.83
2018-03-26T20:33:15.238Z,76.78
2018-03-26T20:35:43.744Z,76.90
2018-03-26T20:38:12.246Z,76.85
2018-03-26T20:40:42.446Z,76.72
2018-03-26T20:43:10.863Z,76.79
2018-03-26T20:45:39.491Z,76.66
2018-03-26T20:48:09.539Z,76.87
2018-03-26T20:50:37.952Z,76.81
2018-03-26T20:53:07.952Z,76.70
2018-03-26T20:55:36.410Z,76.71
2018-03-26T20:58:06.364Z,76.80
2018-03-26T21:00:36.201Z,77.03
2018-03-26T21:03:04.710Z,76.48
2018-03-26T21:05:33.173Z,76.02
2018-03-26T21:08:01.637Z,76.08
2018-03-26T21:10:30.130Z,76.46
2018-03-26T21:12:58.513Z,76.60
2018-03-26T21:15:27.018Z,76.24
2018-03-26T21:17:55.593Z,76.12
2018-03-26T21:20:24.033Z,76.45
2018-03-26T21:22:56.561Z,76.73
2018-03-26T21:25:26.574Z,77.09
2018-03-26T21:27:55.041Z,77.39
2018-03-26T21:30:23.509Z,76.88
2018-03-26T21:32:51.891Z,76.98
2018-03-26T21:35:20.346Z,77.06
2018-03-26T21:37:48.801Z,77.22
2018-03-26T21:40:17.237Z,77.23
2018-03-26T21:42:45.735Z,77.24
2018-03-26T21:45:14.213Z,77.34
2018-03-26T21:47:42.626Z,77.37
2018-03-26T21:50:12.951Z,77.47
2018-03-26T21:52:42.870Z,77.81
2018-03-26T21:55:15.453Z,77.74
2018-03-26T21:57:43.821Z,77.88
2018-03-26T22:00:16.165Z,77.74
2018-03-26T22:02:44.835Z,77.94
2018-03-26T22:05:13.330Z,77.98
2018-03-26T22:07:43.741Z,77.72
2018-03-26T22:10:12.535Z,77.98
2018-03-26T22:12:40.946Z,77.92
2018-03-26T22:15:09.327Z,77.69
2018-03-26T22:17:39.442Z,77.46
2018-03-26T22:20:07.817Z,77.37
2018-03-26T22:22:37.763Z,77.68
2018-03-26T22:25:08.079Z,77.96
2018-03-26T22:27:36.503Z,76.76
2018-03-26T22:30:06.416Z,76.58
2018-03-26T22:32:34.852Z,77.44
2018-03-26T22:35:03.258Z,76.76
2018-03-26T22:37:35.097Z,77.43
2018-03-26T22:40:03.536Z,78.28
2018-03-26T22:42:31.949Z,78.92
2018-03-26T22:45:01.239Z,78.76
2018-03-26T22:47:29.645Z,78.88
2018-03-26T22:49:58.055Z,78.53
2018-03-26T22:52:26.503Z,78.57
2018-03-26T22:54:55.674Z,78.63
2018-03-26T22:57:24.056Z,77.93
2018-03-26T22:59:53.972Z,78.18
2018-03-26T23:02:22.332Z,78.25
2018-03-26T23:04:51.203Z,78.58
2018-03-26T23:07:19.632Z,78.62
2018-03-26T23:09:48.018Z,78.58
2018-03-26T23:12:16.454Z,78.55
2018-03-26T23:14:44.852Z,78.40
2018-03-26T23:17:13.331Z,78.12
2018-03-26T23:19:42.696Z,78.33
2018-03-26T23:22:11.123Z,78.46
2018-03-26T23:24:41.109Z,78.17
2018-03-26T23:27:09.540Z,78.17
2018-03-26T23:29:39.261Z,78.07
2018-03-26T23:32:07.740Z,78.28
2018-03-26T23:34:38.142Z,78.28
2018-03-26T23:37:06.574Z,78.17
2018-03-26T23:39:34.984Z,78.09
2018-03-26T23:42:05.252Z,77.72
2018-03-26T23:44:33.681Z,77.66
2018-03-26T23:47:02.114Z,77.80
2018-03-26T23:49:30.693Z,78.20
2018-03-26T23:51:59.100Z,78.34
2018-03-26T23:54:27.562Z,78.12
2018-03-26T23:56:59.982Z,78.62
2018-03-26T23:59:28.396Z,78.69
